Time;durP1;ratioP1;P1;durP2;ratioP2;P2;SDS_P1;SDS_P2;PMS_P1;PMS_P2;Temp;Humidity;BMP_temperature;BMP_pressure;BME280_temperature;BME280_humidity;BME280_pressure;Samples;Min_cycle;Max_cycle;Signal;HPM_P1;HPM_P2
2023/03/28 00:00:34;;;;;;;7.30;6.70;;;1.60;99.90;;;;;;5052539;28;20734;-64
2023/03/28 00:03:00;;;;;;;7.87;7.50;;;1.50;99.90;;;;;;5047462;28;20230;-64
2023/03/28 00:05:26;;;;;;;8.17;7.77;;;1.40;99.90;;;;;;5032802;28;20260;-64
2023/03/28 00:07:52;;;;;;;7.47;7.17;;;1.40;99.90;;;;;;5036270;28;20640;-63
2023/03/28 00:10:19;;;;;;;7.30;6.87;;;1.40;99.90;;;;;;5052329;28;20194;-64
2023/03/28 00:12:45;;;;;;;7.40;7.10;;;1.40;99.90;;;;;;5050762;28;20653;-64
2023/03/28 00:15:11;;;;;;;8.70;7.73;;;1.40;99.90;;;;;;5032688;28;20249;-64
2023/03/28 00:17:40;;;;;;;7.90;7.60;;;1.30;99.90;;;;;;5032500;28;20176;-64
2023/03/28 00:20:09;;;;;;;8.47;7.87;;;1.30;99.90;;;;;;5012573;28;20566;-64
2023/03/28 00:22:37;;;;;;;7.53;7.23;;;1.20;99.90;;;;;;5012789;28;20262;-62
2023/03/28 00:25:05;;;;;;;7.53;7.03;;;1.20;99.90;;;;;;5051912;28;20595;-64
2023/03/28 00:27:32;;;;;;;6.87;6.47;;;1.10;99.90;;;;;;5033356;28;20187;-64
2023/03/28 00:30:01;;;;;;;6.87;6.57;;;1.10;99.90;;;;;;5033878;28;20871;-64
2023/03/28 00:32:27;;;;;;;7.17;6.77;;;1.10;99.90;;;;;;5032212;28;20187;-64
2023/03/28 00:34:52;;;;;;;7.50;7.20;;;1.00;99.90;;;;;;5033598;28;20198;-64
2023/03/28 00:37:19;;;;;;;7.00;6.70;;;1.00;99.90;;;;;;5032156;28;20186;-64
2023/03/28 00:39:48;;;;;;;8.80;8.40;;;1.00;99.90;;;;;;5046723;28;20214;-64
2023/03/28 00:42:21;;;;;;;7.33;7.03;;;1.00;99.90;;;;;;5052177;28;20271;-63
2023/03/28 00:44:48;;;;;;;7.07;6.67;;;0.90;99.90;;;;;;5037541;28;20172;-63
2023/03/28 00:47:39;;;;;;;8.10;7.70;;;0.90;99.90;;;;;;5032148;28;20254;-63
2023/03/28 00:50:36;;;;;;;8.40;7.80;;;0.90;99.90;;;;;;5048048;28;20198;-64
2023/03/28 00:53:03;;;;;;;5.97;5.77;;;0.90;99.90;;;;;;5052023;28;20240;-62
2023/03/28 00:55:47;;;;;;;7.50;6.83;;;0.90;99.90;;;;;;5032607;28;20241;-64
2023/03/28 00:58:26;;;;;;;8.13;6.73;;;0.80;99.90;;;;;;5031853;28;20184;-64
2023/03/28 01:00:55;;;;;;;6.70;6.27;;;0.80;99.90;;;;;;5012000;28;20620;-64
2023/03/28 01:03:28;;;;;;;6.43;6.13;;;0.80;99.90;;;;;;5012357;28;20208;-64
2023/03/28 01:05:55;;;;;;;6.73;6.33;;;0.80;99.90;;;;;;5012266;28;20173;-63
2023/03/28 01:08:25;;;;;;;7.50;6.90;;;0.70;99.90;;;;;;5011458;28;20199;-63
2023/03/28 01:10:51;;;;;;;8.53;7.30;;;0.70;99.90;;;;;;5051174;28;20273;-63
2023/03/28 01:13:32;;;;;;;9.80;6.53;;;0.70;99.90;;;;;;5051943;28;20672;-63
2023/03/28 01:15:59;;;;;;;7.03;6.73;;;0.70;99.90;;;;;;5012278;28;20180;-62
2023/03/28 01:18:25;;;;;;;8.40;6.90;;;0.70;99.90;;;;;;4993697;28;20180;-64
2023/03/28 01:21:13;;;;;;;7.40;6.90;;;0.70;99.90;;;;;;5030635;28;20636;-62
2023/03/28 01:24:09;;;;;;;6.93;6.63;;;0.60;99.90;;;;;;5051059;28;20299;-63
2023/03/28 01:27:18;;;;;;;6.53;6.23;;;0.60;99.90;;;;;;5015842;28;20179;-63
2023/03/28 01:30:06;;;;;;;6.90;6.50;;;0.60;99.90;;;;;;4950704;28;20210;-64
2023/03/28 01:32:48;;;;;;;6.80;6.50;;;0.50;99.90;;;;;;4931744;29;20632;-63
2023/03/28 01:35:32;;;;;;;6.37;6.07;;;0.50;99.90;;;;;;4989882;28;20192;-64
2023/03/28 01:38:12;;;;;;;6.37;6.07;;;0.50;99.90;;;;;;5036136;28;20523;-64
2023/03/28 01:41:08;;;;;;;6.60;6.30;;;0.40;99.90;;;;;;5055023;28;20210;-62
2023/03/28 01:43:51;;;;;;;7.27;6.63;;;0.40;99.90;;;;;;5039056;28;20233;-63
2023/03/28 01:46:26;;;;;;;7.57;6.83;;;0.40;99.90;;;;;;5017613;28;20175;-64
2023/03/28 01:48:59;;;;;;;6.67;6.37;;;0.30;99.90;;;;;;5047606;28;20182;-64
2023/03/28 01:51:42;;;;;;;7.27;6.97;;;0.30;99.90;;;;;;5034658;28;20191;-64
2023/03/28 01:54:12;;;;;;;7.43;7.03;;;0.30;99.90;;;;;;5034666;28;20671;-64
2023/03/28 01:56:59;;;;;;;7.77;7.37;;;0.30;99.90;;;;;;5017754;28;20202;-64
2023/03/28 01:59:28;;;;;;;7.10;6.70;;;0.30;99.90;;;;;;5014957;28;20685;-63
2023/03/28 02:02:02;;;;;;;6.50;6.20;;;0.20;99.90;;;;;;5015464;28;20202;-63
2023/03/28 02:04:29;;;;;;;7.77;7.37;;;0.20;99.90;;;;;;5052917;28;20644;-64
2023/03/28 02:06:56;;;;;;;6.80;6.40;;;0.20;99.90;;;;;;5054988;28;20171;-64
2023/03/28 02:09:24;;;;;;;6.77;6.40;;;0.20;99.90;;;;;;5034791;28;20183;-62
2023/03/28 02:11:55;;;;;;;7.17;6.53;;;0.10;99.90;;;;;;5034967;28;20171;-63
2023/03/28 02:14:25;;;;;;;7.53;7.03;;;0.10;99.90;;;;;;5035416;28;20586;-64
2023/03/28 02:16:56;;;;;;;8.00;7.57;;;0.10;99.90;;;;;;5054601;28;20173;-63
2023/03/28 02:19:26;;;;;;;7.93;7.47;;;0.00;99.90;;;;;;5052808;28;20726;-63
2023/03/28 02:22:02;;;;;;;8.73;8.03;;;0.00;99.90;;;;;;5054658;28;20514;-64
2023/03/28 02:24:27;;;;;;;7.80;7.33;;;0.00;99.90;;;;;;5036088;28;20229;-64
2023/03/28 02:26:55;;;;;;;7.43;6.73;;;0.00;99.90;;;;;;5038301;28;20225;-63
2023/03/28 02:29:20;;;;;;;7.07;6.77;;;0.00;99.90;;;;;;5052413;28;20170;-63
2023/03/28 02:31:47;;;;;;;6.80;6.43;;;0.00;99.90;;;;;;5051980;28;20175;-63
2023/03/28 02:34:13;;;;;;;10.87;9.13;;;0.00;99.90;;;;;;5034576;28;20171;-63
2023/03/28 02:37:16;;;;;;;8.07;7.63;;;-0.10;99.90;;;;;;5034911;28;20176;-63
2023/03/28 02:39:57;;;;;;;7.07;6.50;;;-0.10;99.90;;;;;;5052323;28;20222;-63
2023/03/28 02:42:47;;;;;;;6.93;6.63;;;-0.10;99.90;;;;;;5047950;28;20195;-63
2023/03/28 02:45:37;;;;;;;6.83;6.53;;;-0.10;99.90;;;;;;5041266;28;20175;-64
2023/03/28 02:48:12;;;;;;;7.70;7.30;;;-0.10;99.90;;;;;;5054384;28;20201;-64
2023/03/28 02:51:12;;;;;;;6.47;6.17;;;-0.10;99.90;;;;;;5042533;28;20755;-63
2023/03/28 02:54:01;;;;;;;13.50;7.03;;;-0.10;99.90;;;;;;5034076;28;20262;-63
2023/03/28 02:56:51;;;;;;;7.63;7.00;;;-0.10;99.90;;;;;;5050024;28;20217;-63
2023/03/28 02:59:32;;;;;;;6.83;6.53;;;-0.10;99.90;;;;;;5054106;28;20178;-63
2023/03/28 03:01:58;;;;;;;7.67;7.27;;;0.00;99.90;;;;;;5034602;28;20595;-63
2023/03/28 03:04:24;;;;;;;7.13;6.80;;;0.00;99.90;;;;;;5033348;28;20176;-63
2023/03/28 03:06:49;;;;;;;7.70;7.30;;;0.00;99.90;;;;;;5052003;28;20190;-62
2023/03/28 03:09:16;;;;;;;7.47;7.07;;;0.00;99.90;;;;;;5053757;28;20286;-61
2023/03/28 03:11:42;;;;;;;8.83;7.53;;;-0.10;99.90;;;;;;5052153;28;20182;-61
2023/03/28 03:14:08;;;;;;;9.13;8.40;;;0.00;99.90;;;;;;5054140;28;20662;-63
2023/03/28 03:16:33;;;;;;;7.20;6.90;;;0.00;99.90;;;;;;5038979;28;20179;-63
2023/03/28 03:18:59;;;;;;;7.70;7.17;;;0.00;99.90;;;;;;5033885;28;20637;-63
2023/03/28 03:21:25;;;;;;;8.03;7.20;;;0.10;99.90;;;;;;5046030;28;20206;-64
2023/03/28 03:23:51;;;;;;;7.50;7.10;;;0.10;99.90;;;;;;5034725;28;20215;-64
2023/03/28 03:26:17;;;;;;;7.87;7.43;;;0.10;99.90;;;;;;5033777;28;20196;-64
2023/03/28 03:28:45;;;;;;;7.93;7.43;;;0.10;99.90;;;;;;5033948;28;20191;-63
2023/03/28 03:31:11;;;;;;;7.30;6.90;;;0.20;99.90;;;;;;5043015;28;20600;-64
2023/03/28 03:33:37;;;;;;;10.57;6.60;;;0.20;99.90;;;;;;5053501;28;20187;-64
2023/03/28 03:36:04;;;;;;;7.10;6.70;;;0.20;99.90;;;;;;5044744;28;20183;-63
2023/03/28 03:38:30;;;;;;;8.07;7.53;;;0.20;99.90;;;;;;5033307;28;20187;-63
2023/03/28 03:40:55;;;;;;;10.97;6.87;;;0.20;99.90;;;;;;5039518;28;20215;-63
2023/03/28 03:43:22;;;;;;;7.80;7.07;;;0.20;99.90;;;;;;5053137;28;20298;-63
2023/03/28 03:45:48;;;;;;;9.20;8.27;;;0.20;99.90;;;;;;5047639;28;20179;-63
2023/03/28 03:48:13;;;;;;;7.50;7.20;;;0.20;99.90;;;;;;5033223;28;20629;-64
2023/03/28 03:50:39;;;;;;;7.87;7.43;;;0.30;99.90;;;;;;5042962;28;20214;-63
2023/03/28 03:53:05;;;;;;;6.90;6.60;;;0.30;99.90;;;;;;5053217;28;20185;-63
2023/03/28 03:55:31;;;;;;;7.33;7.03;;;0.30;99.90;;;;;;5043862;28;20195;-64
2023/03/28 03:57:56;;;;;;;8.00;7.60;;;0.30;99.90;;;;;;5033178;28;20221;-64
2023/03/28 04:00:22;;;;;;;7.20;6.67;;;0.30;99.90;;;;;;5039432;28;20207;-64
2023/03/28 04:02:48;;;;;;;7.27;6.60;;;0.20;99.90;;;;;;5052653;28;20212;-64
2023/03/28 04:05:13;;;;;;;8.00;7.53;;;0.20;99.90;;;;;;5047147;28;20563;-63
2023/03/28 04:07:40;;;;;;;8.00;6.77;;;0.20;99.90;;;;;;5032812;28;20178;-64
2023/03/28 04:10:06;;;;;;;14.83;6.60;;;0.20;99.90;;;;;;5035933;28;20205;-64
2023/03/28 04:12:31;;;;;;;6.40;6.10;;;0.20;99.90;;;;;;5052528;28;20178;-63
2023/03/28 04:14:57;;;;;;;8.63;8.13;;;0.20;99.90;;;;;;5050452;28;20189;-64
2023/03/28 04:17:28;;;;;;;7.27;6.87;;;0.10;99.90;;;;;;5032491;28;20193;-64
2023/03/28 04:19:54;;;;;;;6.83;6.37;;;0.10;99.90;;;;;;5033130;28;20203;-63
2023/03/28 04:22:21;;;;;;;12.20;7.00;;;0.00;99.90;;;;;;5052003;28;20209;-62
2023/03/28 04:24:48;;;;;;;7.27;6.90;;;0.00;99.90;;;;;;5052621;28;20205;-64
2023/03/28 04:27:16;;;;;;;7.23;6.57;;;0.00;99.90;;;;;;5032546;28;20175;-64
2023/03/28 04:29:42;;;;;;;7.13;6.83;;;0.00;99.90;;;;;;5049093;28;20194;-64
2023/03/28 04:32:09;;;;;;;7.27;6.97;;;0.00;99.90;;;;;;5052045;28;20591;-63
2023/03/28 04:34:36;;;;;;;8.43;7.93;;;0.00;99.90;;;;;;5050454;28;20182;-62
2023/03/28 04:37:04;;;;;;;7.10;6.70;;;0.00;99.90;;;;;;5052233;28;20270;-63
2023/03/28 04:39:32;;;;;;;7.30;6.80;;;0.00;99.90;;;;;;5037124;28;20214;-64
2023/03/28 04:42:00;;;;;;;7.20;6.90;;;0.00;99.90;;;;;;5032297;28;20178;-63
2023/03/28 04:44:29;;;;;;;7.57;7.17;;;0.00;99.90;;;;;;5045340;28;20229;-64
2023/03/28 04:46:57;;;;;;;9.20;8.03;;;0.00;99.90;;;;;;5051909;28;20248;-64
2023/03/28 04:49:22;;;;;;;7.00;6.60;;;0.00;99.90;;;;;;5011830;28;20542;-64
2023/03/28 04:51:51;;;;;;;6.80;6.43;;;0.00;99.90;;;;;;5012152;28;20195;-64
2023/03/28 04:54:17;;;;;;;6.80;6.43;;;0.00;99.90;;;;;;5049958;28;20515;-63
2023/03/28 04:56:44;;;;;;;7.60;6.90;;;0.00;99.90;;;;;;5052032;28;20163;-63
2023/03/28 04:59:14;;;;;;;7.50;6.90;;;0.00;99.90;;;;;;5034071;28;20183;-64
2023/03/28 05:01:40;;;;;;;11.13;7.50;;;0.00;99.90;;;;;;5032014;28;20164;-64
2023/03/28 05:04:06;;;;;;;7.37;6.87;;;0.00;99.90;;;;;;5032147;28;20553;-64
2023/03/28 05:06:32;;;;;;;7.50;6.90;;;0.10;99.90;;;;;;5031770;28;20248;-64
2023/03/28 05:08:58;;;;;;;8.83;7.63;;;0.10;99.90;;;;;;5046133;28;20257;-64
2023/03/28 05:11:23;;;;;;;8.57;7.87;;;0.10;99.90;;;;;;5051249;28;20285;-64
2023/03/28 05:13:50;;;;;;;7.80;7.47;;;0.10;99.90;;;;;;5037933;28;20309;-63
2023/03/28 05:16:16;;;;;;;7.27;6.97;;;0.10;99.90;;;;;;5032586;28;20168;-62
2023/03/28 05:18:41;;;;;;;7.53;7.13;;;0.10;99.90;;;;;;5051842;28;20189;-63
2023/03/28 05:21:07;;;;;;;8.53;7.73;;;0.10;99.90;;;;;;5051142;28;20233;-64
2023/03/28 05:23:32;;;;;;;7.47;7.03;;;0.10;99.90;;;;;;5032015;28;20211;-62
2023/03/28 05:25:58;;;;;;;7.70;7.20;;;0.20;99.90;;;;;;5031544;28;20202;-63
2023/03/28 05:28:24;;;;;;;7.60;7.10;;;0.20;99.90;;;;;;5048626;28;20175;-63
2023/03/28 05:30:50;;;;;;;8.13;7.73;;;0.20;99.90;;;;;;5051102;28;20194;-63
2023/03/28 05:33:15;;;;;;;7.53;7.13;;;0.20;99.90;;;;;;5035470;28;20184;-64
2023/03/28 05:35:41;;;;;;;7.57;7.07;;;0.30;99.90;;;;;;5031687;28;20258;-63
2023/03/28 05:38:07;;;;;;;8.37;7.87;;;0.30;99.90;;;;;;5045536;28;20210;-64
2023/03/28 05:40:32;;;;;;;6.87;6.47;;;0.30;99.90;;;;;;5051143;28;20210;-64
2023/03/28 05:42:58;;;;;;;8.27;7.83;;;0.30;99.90;;;;;;5038939;28;20577;-65
2023/03/28 05:45:23;;;;;;;8.43;7.83;;;0.30;99.90;;;;;;5031471;28;20179;-64
2023/03/28 05:47:51;;;;;;;8.73;7.73;;;0.30;99.90;;;;;;5051187;28;20171;-64
2023/03/28 05:50:16;;;;;;;7.33;6.93;;;0.40;99.90;;;;;;5050853;28;20187;-64
2023/03/28 05:52:42;;;;;;;7.90;7.40;;;0.40;99.90;;;;;;5035771;28;20230;-64
2023/03/28 05:55:08;;;;;;;8.10;7.60;;;0.50;99.90;;;;;;5031300;28;20661;-64
2023/03/28 05:57:34;;;;;;;8.20;7.70;;;0.60;99.90;;;;;;5028954;28;20266;-64
2023/03/28 06:00:00;;;;;;;10.17;7.47;;;0.60;99.90;;;;;;5030690;28;20222;-64
2023/03/28 06:02:28;;;;;;;8.80;8.20;;;0.70;99.90;;;;;;5045271;28;20237;-64
2023/03/28 06:04:53;;;;;;;7.23;6.83;;;0.70;99.90;;;;;;5041304;28;20195;-64
2023/03/28 06:07:20;;;;;;;7.20;6.90;;;0.80;99.90;;;;;;5030827;28;20206;-64
2023/03/28 06:09:46;;;;;;;8.63;8.13;;;0.90;99.90;;;;;;5038354;28;20260;-63
2023/03/28 06:12:12;;;;;;;10.67;7.87;;;0.90;99.90;;;;;;5050589;28;20182;-64
2023/03/28 06:14:37;;;;;;;8.93;8.40;;;1.00;99.90;;;;;;5044417;28;20656;-63
2023/03/28 06:17:03;;;;;;;23.53;9.50;;;1.10;99.90;;;;;;5035355;28;20178;-63
2023/03/28 06:19:29;;;;;;;8.80;8.30;;;1.20;99.90;;;;;;5050313;28;20202;-64
2023/03/28 06:21:54;;;;;;;10.03;9.43;;;1.30;99.90;;;;;;5029737;28;20610;-64
2023/03/28 06:24:20;;;;;;;9.73;9.10;;;1.30;99.90;;;;;;5031262;28;20172;-63
2023/03/28 06:26:46;;;;;;;8.73;8.20;;;1.40;99.90;;;;;;5049766;28;20166;-64
2023/03/28 06:29:12;;;;;;;17.43;8.23;;;1.50;99.90;;;;;;5021594;28;20175;-65
2023/03/28 06:31:37;;;;;;;8.87;8.00;;;1.60;99.90;;;;;;5034687;28;20197;-63
2023/03/28 06:34:03;;;;;;;11.03;9.37;;;1.70;99.90;;;;;;5046726;28;20179;-64
2023/03/28 06:36:29;;;;;;;8.17;7.60;;;1.80;99.90;;;;;;5030409;28;20186;-64
2023/03/28 06:38:57;;;;;;;8.80;7.83;;;1.90;99.90;;;;;;5034579;28;20207;-64
2023/03/28 06:41:22;;;;;;;7.50;7.07;;;2.00;99.90;;;;;;5040987;28;20206;-64
2023/03/28 06:43:48;;;;;;;7.90;7.40;;;2.20;99.90;;;;;;5054130;28;20286;-64
2023/03/28 06:46:15;;;;;;;7.73;7.23;;;2.30;99.90;;;;;;5047941;28;20180;-64
2023/03/28 06:48:40;;;;;;;7.40;6.97;;;2.60;99.90;;;;;;5034292;28;20229;-64
2023/03/28 06:51:06;;;;;;;16.30;8.60;;;2.90;99.90;;;;;;5037746;28;20194;-64
2023/03/28 06:53:32;;;;;;;9.67;8.73;;;3.30;99.90;;;;;;5054140;28;20265;-62
2023/03/28 06:55:58;;;;;;;7.63;7.13;;;3.70;99.90;;;;;;5051356;28;20297;-64
2023/03/28 06:58:24;;;;;;;7.53;6.80;;;4.10;99.90;;;;;;5034186;28;20194;-63
2023/03/28 07:00:51;;;;;;;9.40;6.67;;;4.50;99.90;;;;;;5034400;28;20563;-64
2023/03/28 07:03:17;;;;;;;8.80;6.83;;;5.00;99.90;;;;;;5033993;28;20571;-64
2023/03/28 07:05:43;;;;;;;7.80;7.30;;;5.40;99.90;;;;;;5033812;28;20175;-64
2023/03/28 07:08:11;;;;;;;6.53;6.00;;;5.80;99.90;;;;;;5051443;28;20225;-66
2023/03/28 07:10:38;;;;;;;7.50;6.83;;;6.30;99.90;;;;;;5052220;28;20651;-65
2023/03/28 07:13:05;;;;;;;8.67;8.13;;;6.80;99.90;;;;;;5034439;28;20191;-65
2023/03/28 07:15:30;;;;;;;7.13;6.60;;;7.10;99.90;;;;;;5032867;28;20175;-65
2023/03/28 07:17:56;;;;;;;8.77;6.00;;;7.50;99.90;;;;;;5049607;28;20186;-65
2023/03/28 07:20:23;;;;;;;6.00;5.43;;;7.70;99.90;;;;;;5052983;28;20270;-65
2023/03/28 07:22:49;;;;;;;6.40;5.40;;;7.70;99.90;;;;;;5038467;28;20203;-65
2023/03/28 07:25:15;;;;;;;5.80;5.40;;;7.90;99.90;;;;;;5032468;28;20160;-64
2023/03/28 07:27:41;;;;;;;8.60;6.03;;;8.20;99.90;;;;;;5046217;28;20175;-65
2023/03/28 07:30:07;;;;;;;5.50;5.10;;;8.60;99.90;;;;;;5042397;28;20196;-65
2023/03/28 07:32:35;;;;;;;8.00;5.40;;;8.90;99.90;;;;;;5033332;28;20325;-65
2023/03/28 07:35:01;;;;;;;4.87;4.53;;;9.00;99.90;;;;;;5044037;28;20175;-65
2023/03/28 07:37:26;;;;;;;5.00;4.70;;;9.10;99.90;;;;;;5042346;28;20191;-66
2023/03/28 07:39:53;;;;;;;5.67;5.17;;;9.30;99.90;;;;;;5033098;28;20211;-65
2023/03/28 07:42:19;;;;;;;5.20;4.40;;;9.70;99.90;;;;;;5033280;28;20199;-65
2023/03/28 07:44:44;;;;;;;5.10;4.60;;;9.90;99.90;;;;;;5042601;28;20674;-65
2023/03/28 07:47:10;;;;;;;5.30;4.90;;;9.70;99.90;;;;;;5052600;28;20246;-65
2023/03/28 07:49:36;;;;;;;6.90;5.30;;;9.50;99.90;;;;;;5044608;28;20203;-65
2023/03/28 07:52:02;;;;;;;6.37;4.87;;;9.50;99.90;;;;;;5033067;28;20176;-65
2023/03/28 07:54:31;;;;;;;5.33;4.97;;;9.70;99.90;;;;;;5038889;28;20184;-65
2023/03/28 07:56:57;;;;;;;5.70;5.00;;;9.80;99.90;;;;;;5053024;28;20540;-65
2023/03/28 07:59:23;;;;;;;4.77;4.50;;;9.80;99.90;;;;;;5050589;28;20655;-65
2023/03/28 08:01:49;;;;;;;5.03;4.53;;;10.00;99.90;;;;;;5052570;28;20202;-65
2023/03/28 08:04:15;;;;;;;5.47;4.90;;;10.30;99.90;;;;;;5049426;28;20267;-65
2023/03/28 08:06:40;;;;;;;4.30;4.07;;;10.50;99.90;;;;;;5032854;28;20163;-65
2023/03/28 08:09:08;;;;;;;4.43;4.13;;;11.10;99.90;;;;;;5033441;28;20199;-64
2023/03/28 08:11:35;;;;;;;4.77;4.30;;;11.60;99.90;;;;;;5051549;28;20170;-65
2023/03/28 08:14:05;;;;;;;5.73;4.00;;;11.70;99.90;;;;;;5032976;28;20179;-65
2023/03/28 08:16:31;;;;;;;4.50;4.10;;;11.70;99.90;;;;;;5039488;28;20194;-64
2023/03/28 08:18:57;;;;;;;3.83;3.63;;;11.90;99.90;;;;;;5052569;28;20217;-64
2023/03/28 08:21:24;;;;;;;4.97;4.40;;;12.00;99.90;;;;;;5032571;28;20199;-65
2023/03/28 08:23:50;;;;;;;6.97;4.43;;;12.10;99.90;;;;;;5032628;28;20216;-65
2023/03/28 08:26:16;;;;;;;6.90;4.50;;;12.20;99.90;;;;;;5033527;28;20176;-65
2023/03/28 08:28:41;;;;;;;4.17;3.90;;;12.30;99.90;;;;;;5044331;28;20246;-66
2023/03/28 08:31:12;;;;;;;3.60;3.40;;;12.40;99.90;;;;;;5051861;28;20682;-65
2023/03/28 08:33:39;;;;;;;4.00;3.60;;;12.50;99.90;;;;;;5041012;28;20179;-65
2023/03/28 08:36:05;;;;;;;4.03;3.67;;;12.50;99.90;;;;;;5036086;28;20262;-65
2023/03/28 08:38:31;;;;;;;4.30;3.90;;;12.60;99.90;;;;;;5050246;28;20592;-65
2023/03/28 08:41:13;;;;;;;4.87;4.10;;;12.90;99.90;;;;;;5047003;28;20211;-65
2023/03/28 08:44:00;;;;;;;4.37;3.87;;;12.50;99.90;;;;;;5032021;28;20205;-65
2023/03/28 08:46:28;;;;;;;3.80;3.40;;;12.70;99.90;;;;;;5031187;28;20282;-65
2023/03/28 08:48:55;;;;;;;5.00;3.90;;;12.80;99.90;;;;;;5031318;28;20230;-65
2023/03/28 08:51:26;;;;;;;3.97;3.67;;;12.90;99.90;;;;;;5037806;28;20222;-66
2023/03/28 08:54:07;;;;;;;4.07;3.87;;;13.30;99.90;;;;;;5052028;28;20644;-65
2023/03/28 08:56:38;;;;;;;3.70;3.50;;;13.70;99.90;;;;;;5043750;28;20571;-65
2023/03/28 08:59:11;;;;;;;5.10;4.17;;;13.60;98.40;;;;;;5038174;28;20178;-64
2023/03/28 09:01:38;;;;;;;6.13;4.10;;;13.40;99.20;;;;;;5034388;28;20198;-65
2023/03/28 09:04:04;;;;;;;4.30;3.90;;;13.30;98.70;;;;;;5030243;28;20229;-65
2023/03/28 09:06:39;;;;;;;4.67;3.70;;;12.90;98.40;;;;;;5031875;28;20676;-65
2023/03/28 09:09:08;;;;;;;6.20;3.77;;;12.50;98.40;;;;;;5031776;28;20250;-65
2023/03/28 09:11:48;;;;;;;3.87;3.67;;;12.00;99.30;;;;;;5031390;28;20172;-65
2023/03/28 09:14:47;;;;;;;5.10;3.57;;;11.90;99.20;;;;;;5031218;28;20167;-65
2023/03/28 09:17:21;;;;;;;3.97;3.77;;;12.00;99.80;;;;;;5031621;28;20247;-65
2023/03/28 09:20:10;;;;;;;3.87;3.57;;;11.90;98.50;;;;;;5040807;28;20205;-65
2023/03/28 09:22:51;;;;;;;4.13;3.60;;;11.90;99.90;;;;;;5046481;28;20610;-65
2023/03/28 09:25:28;;;;;;;6.13;5.60;;;12.10;99.90;;;;;;5030702;28;20282;-65
2023/03/28 09:28:16;;;;;;;5.97;3.60;;;12.30;99.50;;;;;;5037853;28;20198;-65
2023/03/28 09:30:48;;;;;;;3.53;3.33;;;12.50;99.20;;;;;;5032668;28;20244;-65
2023/03/28 09:33:18;;;;;;;3.13;3.03;;;12.70;97.90;;;;;;5031198;28;20175;-66
2023/03/28 09:35:45;;;;;;;3.87;3.50;;;13.50;98.20;;;;;;5031173;28;20171;-65
2023/03/28 09:38:21;;;;;;;3.20;3.10;;;14.10;91.70;;;;;;5039241;28;20174;-65
2023/03/28 09:40:48;;;;;;;3.83;3.43;;;14.30;94.00;;;;;;5051269;28;20602;-66
2023/03/28 09:43:33;;;;;;;3.90;3.60;;;14.20;92.00;;;;;;5043142;28;20203;-65
2023/03/28 09:46:03;;;;;;;3.60;3.30;;;14.10;90.60;;;;;;5031082;28;20246;-65
2023/03/28 09:48:32;;;;;;;3.43;3.23;;;14.00;89.80;;;;;;5032316;28;20184;-65
2023/03/28 09:50:59;;;;;;;3.50;3.30;;;14.20;91.40;;;;;;5030871;28;20187;-65
2023/03/28 09:53:27;;;;;;;3.60;3.40;;;14.20;91.60;;;;;;5035273;28;20229;-65
2023/03/28 09:56:18;;;;;;;3.23;3.03;;;14.20;90.80;;;;;;5038713;28;20186;-64
2023/03/28 09:58:58;;;;;;;5.43;3.50;;;14.20;89.30;;;;;;5031410;28;20178;-65
2023/03/28 10:01:39;;;;;;;3.80;3.50;;;13.80;91.00;;;;;;5032463;28;20300;-65
2023/03/28 10:04:26;;;;;;;3.40;3.20;;;14.00;91.90;;;;;;5046929;28;20214;-65
2023/03/28 10:07:06;;;;;;;4.37;3.70;;;14.20;91.90;;;;;;5053446;28;20197;-65
2023/03/28 10:09:31;;;;;;;3.90;3.60;;;14.20;91.00;;;;;;5049532;28;20197;-65
2023/03/28 10:12:00;;;;;;;3.57;3.27;;;14.20;92.10;;;;;;5054508;28;20546;-65
2023/03/28 10:14:32;;;;;;;4.03;3.60;;;14.40;91.90;;;;;;5030186;28;20179;-65
2023/03/28 10:17:13;;;;;;;3.60;3.50;;;14.10;87.80;;;;;;5035128;28;20167;-65
2023/03/28 10:19:44;;;;;;;4.10;3.80;;;13.80;90.10;;;;;;5049305;28;20729;-66
2023/03/28 10:22:37;;;;;;;3.93;3.73;;;13.60;90.00;;;;;;5054856;28;20182;-65
2023/03/28 10:25:05;;;;;;;3.87;3.47;;;13.30;88.60;;;;;;5033451;28;20558;-65
2023/03/28 10:27:34;;;;;;;3.97;3.67;;;13.00;86.00;;;;;;5042599;28;20191;-66
2023/03/28 10:30:28;;;;;;;3.53;3.37;;;12.90;89.10;;;;;;5053801;28;20294;-65
2023/03/28 10:33:13;;;;;;;3.83;3.27;;;13.20;89.60;;;;;;5043067;28;20233;-65
2023/03/28 10:35:56;;;;;;;3.80;3.60;;;13.20;84.80;;;;;;5034403;28;20182;-64
2023/03/28 10:38:25;;;;;;;3.47;3.27;;;13.10;83.30;;;;;;5048310;28;20691;-65
2023/03/28 10:41:06;;;;;;;4.07;3.87;;;12.70;84.20;;;;;;5053785;28;20217;-64
2023/03/28 10:43:40;;;;;;;3.77;3.53;;;12.50;83.60;;;;;;5034086;28;20221;-63
2023/03/28 10:46:11;;;;;;;3.60;3.50;;;12.60;85.70;;;;;;5035339;28;20171;-64
2023/03/28 10:48:38;;;;;;;3.80;3.50;;;12.80;85.50;;;;;;5054312;28;20174;-64
2023/03/28 10:51:09;;;;;;;3.87;3.67;;;13.00;87.60;;;;;;5052850;28;20686;-64
2023/03/28 10:54:01;;;;;;;4.77;3.50;;;13.40;86.90;;;;;;5016417;28;20645;-64
2023/03/28 10:56:33;;;;;;;3.77;3.57;;;13.70;86.00;;;;;;5036751;28;20226;-64
2023/03/28 10:59:17;;;;;;;3.50;3.40;;;13.70;79.50;;;;;;5036307;28;20183;-64
2023/03/28 11:02:01;;;;;;;3.50;3.40;;;13.20;80.30;;;;;;5049069;28;20241;-63
2023/03/28 11:04:33;;;;;;;4.00;3.70;;;13.20;83.20;;;;;;5033949;28;20253;-64
2023/03/28 11:07:09;;;;;;;3.80;3.60;;;13.00;80.30;;;;;;5022139;28;20175;-64
2023/03/28 11:09:45;;;;;;;4.10;3.80;;;12.80;79.40;;;;;;5053529;28;20194;-64
2023/03/28 11:12:19;;;;;;;3.90;3.70;;;12.70;77.90;;;;;;5045364;28;20406;-64
2023/03/28 11:15:01;;;;;;;4.13;3.77;;;12.60;83.70;;;;;;5032953;28;20184;-64
2023/03/28 11:17:53;;;;;;;4.40;4.20;;;12.70;78.60;;;;;;5042113;28;20316;-64
2023/03/28 11:20:47;;;;;;;4.00;3.80;;;12.40;79.70;;;;;;5048157;28;20218;-64
2023/03/28 11:23:34;;;;;;;4.00;3.80;;;12.60;81.60;;;;;;5033194;28;20207;-64
2023/03/28 11:26:17;;;;;;;4.10;3.90;;;12.60;80.60;;;;;;5024344;28;20199;-64
2023/03/28 11:29:07;;;;;;;4.37;4.10;;;12.60;78.10;;;;;;5033524;28;20176;-64
2023/03/28 11:31:39;;;;;;;4.27;3.90;;;12.30;77.40;;;;;;5013584;28;20203;-64
2023/03/28 11:34:20;;;;;;;4.10;3.80;;;12.10;74.50;;;;;;5013705;28;20715;-64
2023/03/28 11:36:57;;;;;;;4.10;3.90;;;11.80;70.10;;;;;;5013754;28;20242;-64
2023/03/28 11:39:32;;;;;;;4.47;4.00;;;11.60;73.70;;;;;;5012872;28;20180;-64
2023/03/28 11:42:05;;;;;;;4.77;4.20;;;11.60;75.80;;;;;;5013369;28;20180;-64
2023/03/28 11:44:37;;;;;;;3.80;3.60;;;11.80;74.10;;;;;;5013624;28;20243;-64
2023/03/28 11:47:11;;;;;;;4.10;3.90;;;12.10;76.40;;;;;;5035564;28;20660;-64
2023/03/28 11:49:46;;;;;;;4.30;4.00;;;12.40;77.60;;;;;;5032875;28;20279;-64
2023/03/28 11:52:34;;;;;;;5.57;4.10;;;12.40;76.80;;;;;;5053430;28;20162;-64
2023/03/28 11:55:19;;;;;;;3.80;3.60;;;12.70;81.80;;;;;;5049927;28;20212;-64
2023/03/28 11:58:02;;;;;;;3.60;3.40;;;13.10;75.10;;;;;;5033198;28;20229;-63
2023/03/28 12:00:36;;;;;;;4.10;3.80;;;13.50;74.70;;;;;;5020558;28;20870;-64
2023/03/28 12:03:30;;;;;;;3.80;3.60;;;13.80;77.50;;;;;;5052785;28;20297;-64
2023/03/28 12:06:09;;;;;;;3.80;3.60;;;13.80;77.00;;;;;;5043062;28;20191;-64
2023/03/28 12:08:44;;;;;;;3.33;3.20;;;14.20;79.60;;;;;;5032797;28;20182;-64
2023/03/28 12:11:38;;;;;;;3.67;3.47;;;14.60;77.10;;;;;;5042835;28;20198;-64
2023/03/28 12:14:47;;;;;;;3.70;3.40;;;14.80;76.40;;;;;;5042647;28;20557;-64
2023/03/28 12:17:22;;;;;;;3.43;3.33;;;14.90;75.90;;;;;;5033835;28;20167;-65
2023/03/28 12:19:48;;;;;;;3.97;3.73;;;14.10;70.80;;;;;;5030265;28;20569;-65
2023/03/28 12:22:25;;;;;;;3.87;3.57;;;13.70;76.40;;;;;;5049982;28;20265;-65
2023/03/28 12:25:07;;;;;;;3.53;3.40;;;13.80;75.80;;;;;;5051029;28;20193;-64
2023/03/28 12:27:48;;;;;;;4.00;3.80;;;13.90;74.30;;;;;;5033534;28;20593;-64
2023/03/28 12:30:31;;;;;;;3.93;3.70;;;13.80;77.40;;;;;;5035252;28;20277;-64
2023/03/28 12:33:25;;;;;;;4.57;4.27;;;13.90;77.30;;;;;;5052605;28;20175;-64
2023/03/28 12:36:03;;;;;;;3.70;3.50;;;14.10;76.70;;;;;;5043876;28;20179;-65
2023/03/28 12:38:36;;;;;;;4.00;3.80;;;14.30;80.90;;;;;;5032303;28;20549;-64
2023/03/28 12:41:04;;;;;;;3.97;3.60;;;14.70;78.50;;;;;;5040250;28;20283;-64
2023/03/28 12:43:54;;;;;;;4.10;3.80;;;15.00;75.70;;;;;;5052071;28;20234;-64
2023/03/28 12:46:24;;;;;;;3.93;3.63;;;15.10;75.20;;;;;;5041274;28;20176;-64
2023/03/28 12:49:07;;;;;;;4.00;3.70;;;14.80;75.50;;;;;;5031913;28;20214;-64
2023/03/28 12:51:41;;;;;;;4.37;4.00;;;14.50;73.10;;;;;;5030235;28;20521;-65
2023/03/28 12:54:16;;;;;;;4.10;3.90;;;14.30;74.50;;;;;;5028976;28;20182;-65
2023/03/28 12:56:46;;;;;;;4.13;3.93;;;14.30;75.50;;;;;;5051794;28;20163;-65
2023/03/28 12:59:38;;;;;;;3.63;3.43;;;14.30;75.20;;;;;;5042627;28;20203;-65
2023/03/28 13:02:27;;;;;;;4.00;3.80;;;14.00;73.10;;;;;;5024414;28;20559;-64
2023/03/28 13:05:21;;;;;;;3.50;3.40;;;13.70;70.20;;;;;;5045136;28;20270;-65
2023/03/28 13:07:47;;;;;;;4.30;3.93;;;13.60;71.60;;;;;;5050511;28;20644;-64
2023/03/28 13:10:23;;;;;;;4.60;4.30;;;14.00;71.70;;;;;;5034577;28;20195;-65
2023/03/28 13:13:09;;;;;;;4.40;4.03;;;14.00;70.30;;;;;;5031460;28;20265;-65
2023/03/28 13:15:52;;;;;;;4.43;3.90;;;13.80;72.40;;;;;;5049417;28;20187;-64
2023/03/28 13:18:21;;;;;;;3.73;3.50;;;13.50;71.80;;;;;;5052637;28;20644;-65